This is the latest recevied weather packets stored in our database for station/object HS1AXC-1. If no packets are shown the sender has not sent any weather packets the latest 10 day(s).
| Time | Temp. | Humidity | Pressure | Rain* | Wind** | Luminosity | Snow |
|---|---|---|---|---|---|---|---|
| 1777955404 | 36.11° C | 55% | 1011 hPa | - | - | 2 W/m² | - |
| 1777954782 | 36.11° C | 54% | 1011 hPa | - | - | 1 W/m² | - |
| 1777954160 | 36.67° C | 55% | 1011 hPa | - | - | 1 W/m² | - |
| 1777953538 | 36.67° C | 54% | 1011 hPa | - | - | 1 W/m² | - |
| 1777952916 | 36.11° C | 55% | 1011 hPa | - | - | 1 W/m² | - |
| 1777952294 | 35.56° C | 55% | 1012 hPa | - | - | 1 W/m² | - |
| 1777951672 | 35° C | 56% | 1012 hPa | - | - | 1 W/m² | - |
| 1777951050 | 35.56° C | 56% | 1012 hPa | - | - | 1 W/m² | - |
| 1777950427 | 35° C | 60% | 1012 hPa | - | - | 1 W/m² | - |
| 1777949806 | 33.89° C | 63% | 1012 hPa | - | - | 1 W/m² | - |
| 1777949183 | 33.89° C | 63% | 1012 hPa | - | - | 2 W/m² | - |
| 1777948561 | 34.44° C | 62% | 1012 hPa | - | - | 2 W/m² | - |
| 1777947939 | 33.89° C | 62% | 1012 hPa | - | - | 2 W/m² | - |
| 1777947317 | 34.44° C | 61% | 1012 hPa | - | - | 2 W/m² | - |
| 1777946695 | 33.89° C | 62% | 1012 hPa | - | - | 2 W/m² | - |
| 1777946073 | 33.89° C | 62% | 1012 hPa | - | - | 1 W/m² | - |
| 1777945451 | 33.33° C | 66% | 1012 hPa | - | - | 2 W/m² | - |
| 1777944829 | 33.33° C | 67% | 1012 hPa | - | - | 2 W/m² | - |
| 1777944207 | 32.78° C | 69% | 1012 hPa | - | - | 2 W/m² | - |
| 1777943585 | 32.22° C | 70% | 1012 hPa | - | - | 2 W/m² | - |
| 1777942963 | 32.22° C | 69% | 1011 hPa | - | - | 2 W/m² | - |
| 1777942341 | 31.67° C | 74% | 1011 hPa | - | - | 1 W/m² | - |
| 1777941719 | 31.11° C | 79% | 1011 hPa | - | - | 1 W/m² | - |
| 1777941097 | 31.11° C | 79% | 1011 hPa | - | - | 1 W/m² | - |
| 1777940475 | 30° C | 84% | 1011 hPa | - | - | 0 W/m² | - |
* Rain since midnight (hover to see other rain measurements)
** Current wind speed in m/s (hover to see current wind gust speed)